Time;durP1;ratioP1;P1;durP2;ratioP2;P2;SDS_P1;SDS_P2;PMS_P1;PMS_P2;Temp;Humidity;BMP_temperature;BMP_pressure;BME280_temperature;BME280_humidity;BME280_pressure;Samples;Min_cycle;Max_cycle;Signal;HPM_P1;HPM_P2
2021/10/23 00:00:33;;;;;;;22.17;9.30;;;7.60;99.90;;;;;;5047702;28;20198;-81
2021/10/23 00:02:59;;;;;;;20.73;9.60;;;7.60;99.90;;;;;;5066594;28;20453;-81
2021/10/23 00:05:25;;;;;;;15.00;10.33;;;7.60;99.90;;;;;;5053096;28;22308;-81
2021/10/23 00:07:50;;;;;;;17.63;10.63;;;7.60;99.90;;;;;;5051070;28;22961;-81
2021/10/23 00:10:16;;;;;;;18.73;10.10;;;7.60;99.90;;;;;;5049117;28;20822;-81
2021/10/23 00:12:42;;;;;;;24.03;11.00;;;7.60;99.90;;;;;;5052474;28;20190;-81
2021/10/23 00:15:08;;;;;;;19.40;10.30;;;7.70;99.90;;;;;;5049802;28;20442;-81
2021/10/23 00:17:34;;;;;;;17.47;11.00;;;7.80;99.90;;;;;;5047737;28;20194;-81
2021/10/23 00:20:01;;;;;;;23.43;13.40;;;7.60;99.90;;;;;;5054037;28;20476;-81
2021/10/23 00:22:27;;;;;;;22.10;12.00;;;7.60;99.90;;;;;;5049010;28;20214;-81
2021/10/23 00:24:53;;;;;;;24.00;13.80;;;7.60;99.90;;;;;;5051276;28;20539;-81
2021/10/23 00:27:19;;;;;;;25.17;14.80;;;7.60;99.90;;;;;;5053823;28;20880;-81
2021/10/23 00:29:45;;;;;;;32.43;16.30;;;7.70;99.90;;;;;;5049161;28;20195;-81
2021/10/23 00:32:10;;;;;;;22.70;14.57;;;7.70;99.90;;;;;;5047216;28;20978;-81
2021/10/23 00:34:36;;;;;;;32.63;15.90;;;7.70;99.90;;;;;;5047059;28;20187;-81
2021/10/23 00:37:02;;;;;;;31.07;18.10;;;7.80;99.90;;;;;;5047824;28;20186;-81
2021/10/23 00:39:28;;;;;;;29.43;17.20;;;7.80;99.90;;;;;;5051265;28;21156;-82
2021/10/23 00:41:54;;;;;;;28.50;17.07;;;7.90;99.90;;;;;;5049595;28;20453;-81
2021/10/23 00:44:33;;;;;;;31.53;18.10;;;7.90;99.90;;;;;;5051498;28;20455;-81
2021/10/23 00:47:07;;;;;;;28.73;19.40;;;7.90;99.90;;;;;;5046393;28;20174;-81
2021/10/23 00:49:34;;;;;;;31.23;18.93;;;8.00;99.90;;;;;;5048082;28;20483;-82
2021/10/23 00:52:00;;;;;;;31.30;19.17;;;8.00;99.90;;;;;;5046481;28;20453;-81
2021/10/23 00:54:30;;;;;;;32.50;19.83;;;8.00;99.90;;;;;;5052045;28;20524;-81
2021/10/23 00:56:57;;;;;;;30.03;19.73;;;8.00;99.90;;;;;;5049994;28;20440;-81
2021/10/23 00:59:22;;;;;;;32.57;20.10;;;8.00;99.90;;;;;;5038097;28;20472;-81
2021/10/23 01:01:49;;;;;;;32.90;20.40;;;8.00;99.90;;;;;;5042058;28;20441;-81
2021/10/23 01:04:15;;;;;;;32.60;19.70;;;7.90;99.90;;;;;;5037177;28;20182;-80
2021/10/23 01:06:41;;;;;;;34.57;20.50;;;8.00;99.90;;;;;;5050527;28;20460;-81
2021/10/23 01:09:07;;;;;;;31.57;19.37;;;7.90;99.90;;;;;;5049528;28;20470;-81
2021/10/23 01:11:33;;;;;;;28.20;19.13;;;7.80;99.90;;;;;;5051518;28;20464;-81
2021/10/23 01:13:59;;;;;;;31.97;18.73;;;7.80;99.90;;;;;;5048123;28;20926;-82
2021/10/23 01:16:25;;;;;;;30.93;18.80;;;7.80;99.90;;;;;;5049024;28;20867;-81
2021/10/23 01:18:51;;;;;;;30.80;19.37;;;7.90;99.90;;;;;;5069333;28;20488;-81
2021/10/23 01:21:21;;;;;;;29.17;17.67;;;7.80;99.90;;;;;;5046044;28;20198;-81
2021/10/23 01:23:46;;;;;;;30.43;17.90;;;7.80;99.90;;;;;;5049459;28;20201;-81
2021/10/23 01:26:12;;;;;;;28.10;17.00;;;7.90;99.90;;;;;;5050451;28;20835;-81
2021/10/23 01:28:38;;;;;;;36.13;18.37;;;7.80;99.90;;;;;;5048210;28;20205;-81
2021/10/23 01:31:04;;;;;;;29.60;17.20;;;7.70;99.90;;;;;;5044668;28;20186;-81
2021/10/23 01:33:29;;;;;;;27.63;17.13;;;7.70;99.90;;;;;;5049489;28;20452;-81
2021/10/23 01:36:12;;;;;;;27.47;15.63;;;7.60;99.90;;;;;;5049653;28;20245;-81
2021/10/23 01:38:38;;;;;;;24.90;17.70;;;7.60;99.90;;;;;;5050801;28;20214;-81
2021/10/23 01:41:06;;;;;;;28.53;17.60;;;7.70;99.90;;;;;;5047934;28;20460;-79
2021/10/23 01:43:32;;;;;;;31.10;17.73;;;7.60;99.90;;;;;;5051221;28;20464;-79
2021/10/23 01:45:58;;;;;;;41.80;19.67;;;7.60;99.90;;;;;;5048642;28;20449;-79
2021/10/23 01:48:24;;;;;;;34.10;19.57;;;7.70;99.90;;;;;;5051256;28;20472;-79
2021/10/23 01:50:49;;;;;;;31.17;17.93;;;7.70;99.90;;;;;;5050186;28;20195;-81
2021/10/23 01:53:15;;;;;;;35.00;20.73;;;7.70;99.90;;;;;;5044498;28;20450;-82
2021/10/23 01:55:41;;;;;;;33.30;20.47;;;7.70;99.90;;;;;;5046794;28;20206;-79
2021/10/23 01:58:07;;;;;;;37.67;20.70;;;7.80;99.90;;;;;;5047855;28;20232;-80
2021/10/23 02:00:33;;;;;;;36.33;22.23;;;7.70;99.90;;;;;;5048924;28;20214;-79
2021/10/23 02:02:58;;;;;;;34.20;21.10;;;7.70;99.90;;;;;;5046760;28;23882;-80
2021/10/23 02:05:24;;;;;;;31.80;19.50;;;7.70;99.90;;;;;;5050647;28;20729;-81
2021/10/23 02:07:50;;;;;;;36.57;20.20;;;7.70;99.90;;;;;;5049255;28;20194;-81
2021/10/23 02:10:15;;;;;;;38.57;21.70;;;7.70;99.90;;;;;;5051448;28;20299;-81
2021/10/23 02:12:41;;;;;;;38.43;20.20;;;7.70;99.90;;;;;;5047730;28;20661;-81
2021/10/23 02:15:08;;;;;;;31.27;20.10;;;7.70;99.90;;;;;;5053075;28;20183;-81
2021/10/23 02:17:34;;;;;;;38.17;19.40;;;7.60;99.90;;;;;;5054498;28;20190;-81
2021/10/23 02:19:59;;;;;;;31.63;20.20;;;7.50;99.90;;;;;;5051367;28;20472;-82
2021/10/23 02:22:25;;;;;;;29.33;18.60;;;7.60;99.90;;;;;;5049477;28;20183;-81
2021/10/23 02:24:51;;;;;;;31.23;17.33;;;7.50;99.90;;;;;;5049176;28;20198;-81
2021/10/23 02:27:16;;;;;;;36.10;20.30;;;7.50;99.90;;;;;;5049872;28;20191;-81
2021/10/23 02:29:42;;;;;;;36.97;20.53;;;7.50;99.90;;;;;;5051958;28;20271;-81
2021/10/23 02:32:08;;;;;;;29.60;21.47;;;7.50;99.90;;;;;;5048182;28;20269;-82
2021/10/23 02:34:33;;;;;;;28.17;18.00;;;7.40;99.90;;;;;;5050626;28;20190;-81
2021/10/23 02:36:59;;;;;;;28.97;17.67;;;7.50;99.90;;;;;;5044355;28;20201;-81
2021/10/23 02:39:24;;;;;;;35.00;18.90;;;7.40;99.90;;;;;;5054020;28;20264;-81
2021/10/23 02:41:50;;;;;;;30.90;18.40;;;7.40;99.90;;;;;;5055665;28;20218;-81
2021/10/23 02:44:17;;;;;;;33.13;17.93;;;7.40;99.90;;;;;;5051531;28;20206;-81
2021/10/23 02:46:42;;;;;;;34.17;19.93;;;7.40;99.90;;;;;;5051432;28;20439;-81
2021/10/23 02:49:09;;;;;;;29.23;18.70;;;7.40;99.90;;;;;;5051218;28;20850;-81
2021/10/23 02:51:35;;;;;;;25.87;16.97;;;7.30;99.90;;;;;;5053387;28;20281;-81
2021/10/23 02:54:01;;;;;;;33.20;20.17;;;7.40;99.90;;;;;;5052214;28;20491;-81
2021/10/23 02:56:26;;;;;;;36.00;18.83;;;7.50;99.90;;;;;;5050262;28;20477;-81
2021/10/23 02:58:52;;;;;;;28.60;18.70;;;7.60;99.90;;;;;;5047327;28;20226;-81
2021/10/23 03:01:18;;;;;;;34.27;20.80;;;7.70;99.90;;;;;;5050619;28;20318;-81
2021/10/23 03:03:44;;;;;;;30.50;19.90;;;7.80;99.90;;;;;;5055205;28;20449;-81
2021/10/23 03:06:10;;;;;;;31.37;19.87;;;7.70;99.90;;;;;;5053144;28;20456;-81
2021/10/23 03:08:37;;;;;;;29.57;19.93;;;7.60;99.90;;;;;;5048342;28;20344;-82
2021/10/23 03:11:03;;;;;;;25.73;17.73;;;7.70;99.90;;;;;;5052409;28;20203;-82
2021/10/23 03:13:31;;;;;;;29.20;17.70;;;7.60;99.90;;;;;;5055427;28;20553;-81
2021/10/23 03:15:56;;;;;;;28.63;16.63;;;7.60;99.90;;;;;;5051510;28;24558;-81
2021/10/23 03:18:23;;;;;;;32.90;20.07;;;7.70;99.90;;;;;;5055273;28;20182;-81
2021/10/23 03:20:50;;;;;;;31.50;18.90;;;7.60;99.90;;;;;;5050464;28;20502;-81
2021/10/23 03:23:18;;;;;;;26.90;17.77;;;7.50;99.90;;;;;;5053062;28;20775;-82
2021/10/23 03:25:44;;;;;;;36.43;20.27;;;7.60;99.90;;;;;;5055890;28;20502;-81
2021/10/23 03:28:09;;;;;;;28.67;17.50;;;7.60;99.90;;;;;;5053956;28;20786;-82
2021/10/23 03:30:35;;;;;;;33.10;18.60;;;7.50;99.90;;;;;;5047955;28;20186;-82
2021/10/23 03:33:01;;;;;;;26.00;17.20;;;7.60;99.90;;;;;;5052149;28;20730;-81
2021/10/23 03:35:27;;;;;;;29.47;17.43;;;7.60;99.90;;;;;;5055829;28;20193;-81
2021/10/23 03:37:52;;;;;;;29.50;17.00;;;7.60;99.90;;;;;;5051054;28;20448;-81
2021/10/23 03:40:18;;;;;;;27.07;17.50;;;7.50;99.90;;;;;;5050344;28;20210;-80
2021/10/23 03:42:44;;;;;;;24.20;16.10;;;7.40;99.90;;;;;;5051507;28;20194;-81
2021/10/23 03:45:13;;;;;;;27.43;14.50;;;7.30;99.90;;;;;;5047439;28;20178;-81
2021/10/23 03:47:39;;;;;;;29.63;17.83;;;7.30;99.90;;;;;;5048277;28;20451;-80
2021/10/23 03:50:05;;;;;;;31.03;19.37;;;7.30;99.90;;;;;;5052302;28;20448;-80
2021/10/23 03:52:31;;;;;;;34.00;18.80;;;7.50;99.90;;;;;;5048240;28;20303;-80
2021/10/23 03:54:57;;;;;;;27.60;18.57;;;7.50;99.90;;;;;;5052063;28;20480;-81
2021/10/23 03:57:22;;;;;;;34.80;17.27;;;7.50;99.90;;;;;;5051986;28;21353;-81
2021/10/23 03:59:48;;;;;;;28.93;17.00;;;7.50;99.90;;;;;;5051759;28;20341;-81
2021/10/23 04:02:14;;;;;;;25.67;17.27;;;7.50;99.90;;;;;;5050213;28;20206;-80
2021/10/23 04:04:39;;;;;;;24.90;16.27;;;7.50;99.90;;;;;;5051420;28;20682;-81
2021/10/23 04:07:05;;;;;;;22.60;14.93;;;7.50;99.90;;;;;;5050948;28;20182;-81
2021/10/23 04:09:33;;;;;;;28.87;16.93;;;7.40;99.90;;;;;;5047573;28;20206;-81
2021/10/23 04:12:01;;;;;;;26.50;16.60;;;7.30;99.90;;;;;;5050605;28;20467;-81
2021/10/23 04:14:26;;;;;;;24.63;17.13;;;7.40;99.90;;;;;;5054748;28;21211;-80
2021/10/23 04:16:54;;;;;;;28.63;17.27;;;7.40;99.90;;;;;;5051593;28;20190;-80
2021/10/23 04:19:19;;;;;;;28.53;17.17;;;7.30;99.90;;;;;;5050435;28;20479;-80
2021/10/23 04:21:45;;;;;;;24.60;17.00;;;7.30;99.90;;;;;;5054455;28;20178;-80
2021/10/23 04:24:11;;;;;;;27.70;16.80;;;7.20;99.90;;;;;;5050366;28;21101;-81
2021/10/23 04:26:37;;;;;;;32.07;19.07;;;7.30;99.90;;;;;;5049647;28;21113;-81
2021/10/23 04:29:03;;;;;;;28.30;17.70;;;7.40;99.90;;;;;;5068036;28;20194;-81
2021/10/23 04:31:29;;;;;;;25.70;18.10;;;7.30;99.90;;;;;;5049652;28;20445;-80
2021/10/23 04:33:55;;;;;;;28.00;18.77;;;7.30;99.90;;;;;;5049476;28;20487;-81
2021/10/23 04:36:21;;;;;;;36.13;19.80;;;7.20;99.90;;;;;;5051704;28;20187;-80
2021/10/23 04:38:47;;;;;;;32.40;18.40;;;7.30;99.90;;;;;;5052286;28;20673;-81
2021/10/23 04:41:12;;;;;;;28.47;17.60;;;7.20;99.90;;;;;;5049273;28;20464;-81
2021/10/23 04:43:38;;;;;;;23.90;16.20;;;7.20;99.90;;;;;;5048203;28;21076;-81
2021/10/23 04:46:04;;;;;;;24.70;16.60;;;7.10;99.90;;;;;;5050649;28;20829;-80
2021/10/23 04:48:31;;;;;;;29.13;17.43;;;7.10;99.90;;;;;;5053891;28;20741;-81
2021/10/23 04:50:57;;;;;;;26.30;17.57;;;7.10;99.90;;;;;;5048605;28;20194;-80
2021/10/23 04:53:23;;;;;;;30.37;19.43;;;7.10;99.90;;;;;;5051353;28;20504;-81
2021/10/23 04:55:48;;;;;;;37.97;20.30;;;7.00;99.90;;;;;;5050597;28;22219;-81
2021/10/23 04:58:14;;;;;;;27.40;17.67;;;7.00;99.90;;;;;;5049386;28;20449;-80
2021/10/23 05:00:39;;;;;;;29.83;17.60;;;7.00;99.90;;;;;;5047163;28;20184;-80
2021/10/23 05:03:05;;;;;;;31.10;18.67;;;7.00;99.90;;;;;;5052040;28;20267;-81
2021/10/23 05:05:31;;;;;;;31.40;18.83;;;7.00;99.90;;;;;;5049158;28;20189;-80
2021/10/23 05:07:56;;;;;;;27.37;16.90;;;7.00;99.90;;;;;;5051711;28;20269;-80
2021/10/23 05:10:22;;;;;;;29.53;17.67;;;7.10;99.90;;;;;;5045709;28;20210;-80
2021/10/23 05:12:47;;;;;;;24.70;15.93;;;7.00;99.90;;;;;;5050333;28;20934;-81
2021/10/23 05:15:13;;;;;;;24.07;15.20;;;6.80;99.90;;;;;;5049926;28;20183;-81
2021/10/23 05:17:39;;;;;;;29.43;16.20;;;6.80;99.90;;;;;;5046769;28;20213;-81
2021/10/23 05:20:05;;;;;;;25.47;16.50;;;6.80;99.90;;;;;;5050597;28;21023;-81
2021/10/23 05:22:31;;;;;;;21.83;15.20;;;6.70;99.90;;;;;;5051201;28;20182;-81
2021/10/23 05:24:57;;;;;;;20.00;14.00;;;6.70;99.90;;;;;;5054664;28;20486;-81
2021/10/23 05:27:23;;;;;;;22.63;13.00;;;6.60;99.90;;;;;;5051736;28;20460;-81
2021/10/23 05:29:48;;;;;;;29.17;15.73;;;6.50;99.90;;;;;;5049785;28;20829;-80
2021/10/23 05:32:14;;;;;;;27.67;14.63;;;6.40;99.90;;;;;;5046530;28;20198;-81
2021/10/23 05:34:40;;;;;;;24.37;13.77;;;6.40;99.90;;;;;;5056918;28;20247;-81
2021/10/23 05:37:05;;;;;;;24.20;13.47;;;6.40;99.90;;;;;;5055779;28;20189;-81
2021/10/23 05:39:31;;;;;;;27.07;15.57;;;6.40;99.90;;;;;;5055997;28;20207;-81
2021/10/23 05:41:57;;;;;;;24.77;14.30;;;6.40;99.90;;;;;;5053066;28;20465;-81
2021/10/23 05:44:23;;;;;;;28.57;15.90;;;6.50;99.90;;;;;;5054366;28;20190;-80
2021/10/23 05:46:48;;;;;;;21.80;13.67;;;6.50;99.90;;;;;;5052906;28;20194;-81
2021/10/23 05:49:14;;;;;;;23.33;13.50;;;6.40;99.90;;;;;;5055986;28;20806;-81
2021/10/23 05:51:40;;;;;;;27.30;15.20;;;6.40;99.90;;;;;;5053905;28;20191;-81
2021/10/23 05:54:06;;;;;;;24.13;13.40;;;6.50;99.90;;;;;;5046539;28;20260;-81
2021/10/23 05:56:31;;;;;;;25.13;16.00;;;6.30;99.90;;;;;;5054168;28;20221;-81
2021/10/23 05:59:10;;;;;;;25.57;16.33;;;6.30;99.90;;;;;;5051971;28;20306;-81
2021/10/23 06:01:42;;;;;;;26.97;15.40;;;6.40;99.90;;;;;;5053532;28;20216;-81
2021/10/23 06:04:07;;;;;;;29.93;17.50;;;6.30;99.90;;;;;;5055254;28;20533;-81
2021/10/23 06:06:33;;;;;;;32.93;16.60;;;6.40;99.90;;;;;;5055791;28;20554;-80
2021/10/23 06:09:00;;;;;;;29.20;17.00;;;6.40;99.90;;;;;;5053560;28;20206;-81
2021/10/23 06:11:26;;;;;;;25.57;16.30;;;6.40;99.90;;;;;;5053160;28;20559;-80
2021/10/23 06:13:55;;;;;;;32.93;17.90;;;6.40;99.90;;;;;;5057721;28;20535;-81
2021/10/23 06:16:22;;;;;;;28.33;15.33;;;6.40;99.90;;;;;;5057846;28;20194;-81
2021/10/23 06:18:49;;;;;;;33.10;17.20;;;6.40;99.90;;;;;;5054421;28;20471;-81
2021/10/23 06:21:15;;;;;;;24.23;15.10;;;6.40;99.90;;;;;;5058377;28;20455;-81
2021/10/23 06:23:41;;;;;;;24.17;14.77;;;6.40;99.90;;;;;;5052982;28;20444;-80
2021/10/23 06:26:06;;;;;;;30.13;15.93;;;6.60;99.90;;;;;;5050516;28;20464;-81
2021/10/23 06:28:36;;;;;;;35.13;18.17;;;6.60;99.90;;;;;;5048897;28;20705;-81
2021/10/23 06:31:06;;;;;;;26.67;15.33;;;6.50;99.90;;;;;;5047633;28;20769;-81
2021/10/23 06:33:33;;;;;;;29.73;17.67;;;6.60;99.90;;;;;;5048665;28;20576;-81
2021/10/23 06:35:58;;;;;;;25.10;15.17;;;6.60;99.90;;;;;;5050086;28;21153;-81
2021/10/23 06:38:24;;;;;;;23.87;15.10;;;6.60;99.90;;;;;;5049864;28;20506;-81
2021/10/23 06:40:50;;;;;;;30.73;16.77;;;6.70;99.90;;;;;;5051343;28;20187;-80
2021/10/23 06:43:15;;;;;;;28.40;16.20;;;6.70;99.90;;;;;;5048769;28;20193;-81
2021/10/23 06:45:41;;;;;;;31.90;18.17;;;6.70;99.90;;;;;;5049623;28;20206;-81
2021/10/23 06:48:07;;;;;;;32.33;18.43;;;6.70;99.90;;;;;;5048724;28;20683;-81
2021/10/23 06:50:33;;;;;;;35.57;19.20;;;6.80;99.90;;;;;;5050413;28;20195;-81
2021/10/23 06:52:58;;;;;;;31.17;16.97;;;7.00;99.90;;;;;;5050009;28;20476;-81
2021/10/23 06:55:24;;;;;;;30.80;18.03;;;7.10;99.90;;;;;;5043078;28;20194;-81
2021/10/23 06:57:50;;;;;;;30.70;17.50;;;7.20;99.90;;;;;;5049634;28;20210;-81
2021/10/23 07:00:16;;;;;;;31.50;18.13;;;7.30;99.90;;;;;;5047690;28;20198;-81
2021/10/23 07:02:43;;;;;;;32.97;17.40;;;7.30;99.90;;;;;;5046316;28;20194;-81
2021/10/23 07:05:15;;;;;;;26.67;16.90;;;7.50;99.90;;;;;;5048407;28;20618;-81
2021/10/23 07:07:41;;;;;;;31.90;18.87;;;7.50;99.90;;;;;;5051786;28;20441;-81
2021/10/23 07:10:08;;;;;;;31.13;17.70;;;7.60;99.90;;;;;;5051782;28;20526;-81
2021/10/23 07:12:34;;;;;;;34.30;17.17;;;7.60;99.90;;;;;;5050325;28;20814;-80
2021/10/23 07:14:59;;;;;;;26.27;16.77;;;7.60;99.90;;;;;;5052674;28;20470;-80
2021/10/23 07:17:25;;;;;;;38.50;18.60;;;7.60;99.90;;;;;;5053831;28;20196;-80
2021/10/23 07:19:52;;;;;;;34.17;17.40;;;7.80;99.90;;;;;;5047505;28;20545;-81
2021/10/23 07:22:18;;;;;;;32.80;17.70;;;7.80;99.90;;;;;;5051263;28;20178;-80
2021/10/23 07:24:44;;;;;;;30.47;16.40;;;7.80;99.90;;;;;;5051643;28;20452;-80
2021/10/23 07:27:09;;;;;;;31.60;18.17;;;7.70;99.90;;;;;;5038133;28;20464;-80
2021/10/23 07:29:35;;;;;;;33.73;17.63;;;7.80;99.90;;;;;;5042903;28;20691;-81
2021/10/23 07:32:00;;;;;;;37.63;19.20;;;7.80;99.90;;;;;;5046318;28;20598;-81
2021/10/23 07:34:26;;;;;;;33.83;16.33;;;7.80;99.90;;;;;;5051786;28;20299;-81
2021/10/23 07:36:52;;;;;;;31.50;17.87;;;7.70;99.90;;;;;;5047720;28;20193;-80
2021/10/23 07:39:17;;;;;;;29.80;18.17;;;7.50;99.90;;;;;;5046594;28;20222;-80
2021/10/23 07:41:44;;;;;;;32.27;18.20;;;7.60;99.90;;;;;;5043544;28;20207;-81
2021/10/23 07:44:09;;;;;;;26.30;17.10;;;7.70;99.90;;;;;;5049585;28;20179;-81
2021/10/23 07:46:36;;;;;;;37.43;19.73;;;7.90;99.90;;;;;;5042442;28;20461;-81
2021/10/23 07:49:03;;;;;;;30.77;18.70;;;8.20;99.90;;;;;;5047241;28;20205;-80
2021/10/23 07:51:29;;;;;;;32.50;18.80;;;8.30;99.90;;;;;;5046870;28;20525;-80
2021/10/23 07:53:55;;;;;;;30.30;17.77;;;8.30;99.90;;;;;;5050507;28;20468;-81
2021/10/23 07:56:21;;;;;;;32.63;18.37;;;8.20;99.90;;;;;;5052521;28;20963;-81
2021/10/23 07:58:48;;;;;;;30.07;17.70;;;8.10;99.90;;;;;;5051052;28;20206;-80
2021/10/23 08:01:17;;;;;;;29.00;18.60;;;8.20;99.90;;;;;;5044027;28;20442;-80
2021/10/23 08:03:43;;;;;;;31.73;18.30;;;8.40;99.90;;;;;;5048496;28;20829;-80
2021/10/23 08:06:09;;;;;;;32.93;17.37;;;8.40;99.90;;;;;;5051693;28;20433;-80
2021/10/23 08:08:35;;;;;;;38.10;19.10;;;8.30;99.90;;;;;;5054196;28;20197;-80
2021/10/23 08:11:02;;;;;;;30.30;20.43;;;8.20;99.90;;;;;;5056904;28;20487;-80
2021/10/23 08:13:28;;;;;;;30.87;18.40;;;8.20;99.90;;;;;;5054708;28;20454;-80
2021/10/23 08:15:54;;;;;;;35.07;19.47;;;8.30;99.90;;;;;;5047710;28;20858;-81
2021/10/23 08:18:20;;;;;;;32.13;18.60;;;8.30;99.90;;;;;;5055052;28;20511;-80
2021/10/23 08:20:46;;;;;;;30.73;18.10;;;8.30;99.90;;;;;;5053492;28;20190;-80
2021/10/23 08:23:12;;;;;;;31.70;19.00;;;8.40;99.90;;;;;;5051976;28;20463;-80
2021/10/23 08:25:38;;;;;;;35.53;17.80;;;8.50;99.90;;;;;;5053539;28;20734;-80
2021/10/23 08:28:05;;;;;;;34.40;17.63;;;8.60;99.90;;;;;;5051853;28;20202;-80
2021/10/23 08:30:31;;;;;;;34.97;18.97;;;8.70;99.90;;;;;;5053753;28;20440;-80
2021/10/23 08:32:58;;;;;;;28.20;16.50;;;8.80;99.90;;;;;;5052129;28;20472;-80
2021/10/23 08:35:23;;;;;;;34.57;17.80;;;9.00;99.90;;;;;;5048602;28;20517;-80
2021/10/23 08:37:51;;;;;;;31.73;17.77;;;8.80;99.90;;;;;;5050441;28;20444;-80
2021/10/23 08:40:18;;;;;;;27.63;15.87;;;8.90;99.90;;;;;;5053973;28;20237;-80
2021/10/23 08:42:44;;;;;;;26.80;17.50;;;9.00;99.90;;;;;;5055245;28;20466;-80
2021/10/23 08:45:11;;;;;;;30.20;18.00;;;9.10;99.90;;;;;;5054511;28;20528;-80
2021/10/23 08:47:38;;;;;;;32.40;16.50;;;9.10;99.90;;;;;;5055807;28;20441;-80
2021/10/23 08:50:08;;;;;;;27.40;15.77;;;9.10;99.90;;;;;;5054137;28;20463;-80
2021/10/23 08:52:34;;;;;;;30.10;15.53;;;9.10;99.90;;;;;;5054526;28;20849;-79
2021/10/23 08:55:00;;;;;;;28.80;16.77;;;9.30;99.90;;;;;;5052833;28;20440;-80
2021/10/23 08:57:27;;;;;;;32.80;18.50;;;9.20;99.90;;;;;;5054869;28;20230;-79
2021/10/23 08:59:53;;;;;;;31.00;14.60;;;9.30;99.90;;;;;;5051658;28;20218;-80
2021/10/23 09:02:21;;;;;;;26.93;14.67;;;9.40;99.90;;;;;;5052044;28;21118;-82
2021/10/23 09:04:48;;;;;;;23.87;14.80;;;9.60;99.90;;;;;;5056655;28;20534;-81
2021/10/23 09:07:14;;;;;;;24.53;13.90;;;9.50;99.90;;;;;;5034516;28;20841;-79
2021/10/23 09:10:02;;;;;;;24.03;14.50;;;9.50;99.90;;;;;;5055525;28;20453;-82
2021/10/23 09:12:34;;;;;;;28.63;14.27;;;9.50;99.90;;;;;;5051963;28;20898;-79
2021/10/23 09:15:17;;;;;;;21.90;13.60;;;9.50;99.90;;;;;;5047396;28;21104;-81
2021/10/23 09:17:50;;;;;;;19.17;12.43;;;9.50;99.90;;;;;;5044723;28;20464;-81
2021/10/23 09:20:18;;;;;;;21.83;13.03;;;9.50;99.90;;;;;;5051392;28;20483;-79
2021/10/23 09:22:46;;;;;;;27.53;14.10;;;9.50;99.90;;;;;;5048424;28;20484;-82
2021/10/23 09:25:15;;;;;;;19.33;11.97;;;9.60;99.90;;;;;;5045520;28;20455;-81
2021/10/23 09:27:50;;;;;;;19.47;10.50;;;9.70;99.90;;;;;;5043940;28;20461;-81
2021/10/23 09:30:16;;;;;;;17.07;8.67;;;9.70;99.90;;;;;;5042263;28;20530;-81
2021/10/23 09:32:49;;;;;;;21.83;8.87;;;9.70;99.90;;;;;;5050920;28;20495;-81
2021/10/23 09:35:19;;;;;;;16.93;7.80;;;9.70;99.90;;;;;;5043463;28;20440;-81
2021/10/23 09:37:46;;;;;;;17.87;9.57;;;9.60;99.90;;;;;;5053527;28;20791;-81
2021/10/23 09:40:20;;;;;;;14.80;7.70;;;9.70;99.90;;;;;;5049610;28;20473;-81
2021/10/23 09:42:46;;;;;;;13.60;8.30;;;9.70;99.90;;;;;;5045451;28;20472;-81
2021/10/23 09:45:12;;;;;;;14.50;8.07;;;9.80;99.90;;;;;;5045093;28;20509;-81
2021/10/23 09:47:44;;;;;;;16.40;8.50;;;9.80;99.90;;;;;;5046739;28;20457;-81
2021/10/23 09:50:15;;;;;;;18.03;7.83;;;9.80;99.90;;;;;;5050426;28;21182;-81
2021/10/23 09:53:00;;;;;;;12.57;7.47;;;9.80;99.90;;;;;;5052977;28;20445;-81
2021/10/23 09:55:35;;;;;;;16.03;7.13;;;9.90;99.90;;;;;;5051704;28;20437;-81
2021/10/23 09:58:12;;;;;;;20.47;8.13;;;10.00;99.90;;;;;;5049083;28;20473;-81
2021/10/23 10:00:38;;;;;;;17.87;7.80;;;10.00;99.90;;;;;;5048720;28;21106;-81
2021/10/23 10:03:06;;;;;;;14.57;7.70;;;10.10;99.90;;;;;;5046904;28;20512;-81
2021/10/23 10:05:34;;;;;;;16.67;7.70;;;10.20;99.90;;;;;;5045267;28;20440;-81
2021/10/23 10:08:08;;;;;;;15.60;7.50;;;10.30;99.90;;;;;;5052268;28;20510;-81
2021/10/23 10:10:38;;;;;;;19.47;7.07;;;10.30;99.90;;;;;;5045983;28;20539;-80
2021/10/23 10:13:05;;;;;;;18.27;8.33;;;10.30;90.30;;;;;;5043831;28;22564;-81
2021/10/23 10:15:32;;;;;;;13.07;6.63;;;10.40;54.00;;;;;;5048995;28;20464;-81
2021/10/23 10:18:05;;;;;;;13.63;6.87;;;10.50;49.60;;;;;;5052357;28;20455;-81
2021/10/23 10:20:34;;;;;;;18.17;7.37;;;10.50;1.00;;;;;;5052412;28;20998;-81
2021/10/23 10:23:00;;;;;;;26.60;7.40;;;10.40;1.00;;;;;;5057164;28;20444;-80
2021/10/23 10:25:26;;;;;;;20.07;7.77;;;10.50;1.00;;;;;;5053717;28;20448;-81
2021/10/23 10:27:53;;;;;;;14.70;6.73;;;10.50;1.00;;;;;;5053482;28;20210;-81
2021/10/23 10:30:35;;;;;;;14.70;6.13;;;10.50;1.00;;;;;;5045148;28;20544;-81
2021/10/23 10:33:43;;;;;;;19.33;7.20;;;10.50;1.00;;;;;;5035837;28;20452;-81
2021/10/23 10:44:18;;;;;;;11.00;4.33;;;10.60;1.00;;;;;;5051420;28;20186;-80
2021/10/23 10:47:04;;;;;;;11.37;4.20;;;10.60;1.00;;;;;;5052417;28;20433;-80
2021/10/23 10:49:55;;;;;;;8.37;4.10;;;10.60;1.00;;;;;;5051452;28;21241;-80
2021/10/23 10:52:39;;;;;;;7.03;4.07;;;10.50;1.00;;;;;;5056040;28;20448;-80
2021/10/23 10:55:18;;;;;;;7.20;4.97;;;10.50;1.00;;;;;;5054282;28;20449;-80
2021/10/23 10:58:00;;;;;;;14.10;4.60;;;10.60;1.00;;;;;;5053504;28;20478;-79
2021/10/23 11:00:45;;;;;;;9.60;4.00;;;10.70;1.00;;;;;;5054027;28;20860;-79
2021/10/23 11:03:46;;;;;;;8.80;4.70;;;10.70;1.00;;;;;;5052726;28;20491;-79
2021/10/23 11:06:30;;;;;;;13.53;5.70;;;10.80;1.00;;;;;;5053132;28;21384;-79
2021/10/23 11:09:19;;;;;;;6.80;3.77;;;10.90;1.00;;;;;;5056463;28;20468;-80
2021/10/23 11:11:45;;;;;;;13.13;4.87;;;10.90;1.00;;;;;;5053524;28;21004;-80
2021/10/23 11:14:28;;;;;;;8.73;2.70;;;10.90;1.00;;;;;;5051611;28;20444;-80
2021/10/23 11:19:31;;;;;;;6.87;2.40;;;10.90;1.00;;;;;;5050722;28;20511;-80
2021/10/23 11:22:01;;;;;;;4.60;2.53;;;10.90;1.00;;;;;;5055921;28;20182;-80
2021/10/23 11:24:28;;;;;;;9.50;2.97;;;10.80;1.00;;;;;;5057492;28;20539;-80
2021/10/23 11:26:55;;;;;;;15.87;3.00;;;10.90;1.00;;;;;;5054163;28;20452;-80
2021/10/23 11:29:28;;;;;;;11.53;3.40;;;10.90;1.00;;;;;;5052109;28;20476;-80
2021/10/23 11:31:55;;;;;;;5.50;2.50;;;10.90;1.00;;;;;;5049460;28;20985;-80
2021/10/23 11:34:21;;;;;;;6.60;2.97;;;10.80;1.00;;;;;;5045444;28;20977;-80
2021/10/23 11:36:58;;;;;;;7.47;3.37;;;10.70;1.00;;;;;;5044573;28;20449;-80
2021/10/23 11:39:24;;;;;;;9.20;2.60;;;10.70;1.00;;;;;;5042189;28;20474;-80
2021/10/23 11:41:50;;;;;;;4.50;1.60;;;10.90;1.00;;;;;;5048551;28;22087;-80
2021/10/23 11:44:27;;;;;;;10.13;2.57;;;11.10;1.00;;;;;;5044850;28;20185;-80
2021/10/23 11:46:57;;;;;;;9.53;2.20;;;11.20;1.00;;;;;;5046146;28;20206;-80
2021/10/23 11:49:31;;;;;;;5.60;2.50;;;11.30;1.00;;;;;;5042746;28;20662;-80
2021/10/23 11:51:56;;;;;;;5.97;1.60;;;11.30;1.00;;;;;;5040302;28;20448;-80
2021/10/23 11:54:22;;;;;;;8.87;2.40;;;11.30;1.00;;;;;;5049986;28;20471;-80
2021/10/23 11:56:51;;;;;;;6.10;1.67;;;11.50;1.00;;;;;;5044283;28;20526;-79
2021/10/23 11:59:17;;;;;;;4.27;2.17;;;11.60;1.00;;;;;;5042751;28;20229;-80
2021/10/23 12:01:43;;;;;;;7.10;2.40;;;11.60;1.00;;;;;;5043440;28;21366;-80
2021/10/23 12:04:08;;;;;;;7.17;2.10;;;11.70;1.00;;;;;;5048511;28;20539;-79
2021/10/23 12:06:42;;;;;;;8.27;1.90;;;11.60;1.00;;;;;;5045809;28;20183;-81
2021/10/23 12:09:23;;;;;;;4.53;1.70;;;11.70;1.00;;;;;;5043318;28;20343;-80
2021/10/23 12:12:09;;;;;;;7.50;2.20;;;11.70;1.00;;;;;;5046201;28;21160;-81
2021/10/23 12:14:36;;;;;;;7.70;2.20;;;11.70;1.00;;;;;;5045082;28;20505;-81
2021/10/23 12:17:02;;;;;;;7.40;2.67;;;11.70;1.00;;;;;;5044250;28;20445;-82
2021/10/23 12:19:36;;;;;;;9.40;2.50;;;11.70;1.00;;;;;;5044405;28;20922;-79
2021/10/23 12:22:05;;;;;;;11.13;2.73;;;11.80;1.00;;;;;;5043217;28;20567;-79
2021/10/23 12:24:33;;;;;;;14.40;2.33;;;11.90;1.00;;;;;;5048006;28;20575;-80
2021/10/23 12:27:12;;;;;;;5.73;2.43;;;12.00;1.00;;;;;;5045045;28;20493;-80
2021/10/23 12:29:45;;;;;;;6.37;2.70;;;12.00;1.00;;;;;;5041838;28;20459;-80
2021/10/23 12:32:20;;;;;;;6.30;3.07;;;12.10;1.00;;;;;;5042936;28;20473;-80
2021/10/23 12:34:51;;;;;;;8.27;3.77;;;12.10;1.00;;;;;;5042437;28;20562;-80
2021/10/23 12:37:25;;;;;;;16.90;3.43;;;12.20;1.00;;;;;;5045945;28;20760;-80
2021/10/23 12:40:12;;;;;;;7.90;2.50;;;12.20;1.00;;;;;;5040962;28;20485;-80
2021/10/23 12:42:47;;;;;;;4.67;2.17;;;12.20;1.00;;;;;;5044343;28;20463;-80
2021/10/23 12:45:19;;;;;;;11.77;1.90;;;12.10;1.00;;;;;;5042745;28;20450;-80
2021/10/23 12:47:45;;;;;;;5.40;2.27;;;12.20;1.00;;;;;;5040029;28;20569;-80
2021/10/23 12:50:12;;;;;;;3.63;1.60;;;12.20;1.00;;;;;;5045140;28;20448;-80
2021/10/23 12:52:38;;;;;;;8.57;2.10;;;12.20;1.00;;;;;;5046536;28;20497;-80
2021/10/23 12:55:05;;;;;;;4.20;1.70;;;12.10;1.00;;;;;;5047013;28;20440;-80